createdAt,value
2023-04-27T00:00:10.713Z,455.00
2023-04-27T00:01:10.791Z,457.00
2023-04-27T00:02:10.847Z,454.00
2023-04-27T00:03:11.043Z,454.00
2023-04-27T00:04:11.043Z,454.00
2023-04-27T00:05:11.064Z,456.00
2023-04-27T00:06:11.048Z,458.00
2023-04-27T00:07:10.978Z,458.00
2023-04-27T00:08:11.012Z,458.00
2023-04-27T00:09:11.096Z,461.00
2023-04-27T00:10:11.106Z,461.00
2023-04-27T00:11:11.118Z,460.00
2023-04-27T00:12:11.141Z,459.00
2023-04-27T00:13:11.193Z,458.00
2023-04-27T00:14:11.205Z,457.00
2023-04-27T00:15:11.224Z,457.00
2023-04-27T00:16:11.293Z,457.00
2023-04-27T00:17:11.270Z,457.00
2023-04-27T00:18:11.316Z,454.00
2023-04-27T00:19:11.384Z,456.00
2023-04-27T00:20:11.391Z,459.00
2023-04-27T00:21:11.449Z,455.00
2023-04-27T00:22:11.459Z,452.00
2023-04-27T00:23:11.489Z,453.00
2023-04-27T00:24:11.561Z,452.00
2023-04-27T00:25:11.588Z,452.00
2023-04-27T00:26:11.663Z,453.00
2023-04-27T00:27:11.645Z,451.00
2023-04-27T00:28:12.506Z,450.00
2023-04-27T00:29:11.882Z,449.00
2023-04-27T00:30:11.753Z,448.00
2023-04-27T00:31:11.787Z,448.00
2023-04-27T00:32:11.954Z,450.00
2023-04-27T00:33:11.860Z,448.00
2023-04-27T00:34:11.911Z,449.00
2023-04-27T00:35:11.934Z,452.00
2023-04-27T00:36:11.995Z,454.00
2023-04-27T00:37:12.010Z,455.00
2023-04-27T00:38:12.056Z,452.00
2023-04-27T00:39:12.361Z,452.00
2023-04-27T00:40:12.101Z,453.00
2023-04-27T00:41:12.128Z,451.00
2023-04-27T00:42:12.176Z,451.00
2023-04-27T00:43:12.194Z,449.00
2023-04-27T00:44:12.250Z,449.00
2023-04-27T00:45:12.280Z,448.00
2023-04-27T00:46:12.386Z,447.00
2023-04-27T00:47:12.357Z,449.00
2023-04-27T00:48:12.388Z,451.00
2023-04-27T00:49:12.595Z,453.00
2023-04-27T00:50:12.513Z,453.00
2023-04-27T00:51:12.516Z,455.00
2023-04-27T00:52:12.553Z,455.00
2023-04-27T00:53:12.586Z,456.00
2023-04-27T00:54:12.612Z,456.00
2023-04-27T00:55:12.644Z,458.00
2023-04-27T00:56:12.680Z,460.00
2023-04-27T00:57:12.717Z,458.00
2023-04-27T00:58:12.786Z,458.00
2023-04-27T00:59:13.050Z,458.00
2023-04-27T01:00:12.821Z,456.00
2023-04-27T01:01:12.925Z,456.00
2023-04-27T01:02:13.003Z,455.00
2023-04-27T01:03:13.045Z,456.00
2023-04-27T01:04:13.137Z,456.00
2023-04-27T01:05:12.993Z,458.00
2023-04-27T01:06:12.999Z,458.00
2023-04-27T01:07:13.064Z,459.00
2023-04-27T01:08:13.096Z,458.00
2023-04-27T01:09:13.278Z,455.00
2023-04-27T01:10:13.175Z,457.00
2023-04-27T01:11:13.209Z,455.00
2023-04-27T01:12:13.234Z,456.00
2023-04-27T01:13:13.271Z,454.00
2023-04-27T01:14:13.303Z,454.00
2023-04-27T01:15:13.329Z,455.00
2023-04-27T01:16:13.450Z,455.00
2023-04-27T01:17:13.408Z,456.00
2023-04-27T01:18:13.472Z,456.00
2023-04-27T01:19:13.700Z,454.00
2023-04-27T01:20:13.521Z,454.00
2023-04-27T01:21:13.583Z,455.00
2023-04-27T01:22:13.617Z,453.00
2023-04-27T01:23:16.134Z,454.00
2023-04-27T01:24:13.634Z,452.00
2023-04-27T01:25:13.622Z,455.00
2023-04-27T01:26:13.611Z,453.00
2023-04-27T01:27:13.648Z,455.00
2023-04-27T01:28:13.588Z,454.00
2023-04-27T01:29:13.839Z,453.00
2023-04-27T01:30:13.627Z,453.00
2023-04-27T01:31:13.632Z,454.00
2023-04-27T01:32:13.566Z,454.00
2023-04-27T01:33:13.565Z,454.00
2023-04-27T01:34:13.543Z,455.00
2023-04-27T01:35:13.583Z,456.00
2023-04-27T01:36:13.528Z,456.00
2023-04-27T01:37:13.559Z,459.00
2023-04-27T01:38:13.531Z,457.00
2023-04-27T01:39:13.863Z,454.00
2023-04-27T01:40:13.503Z,454.00
2023-04-27T01:41:13.525Z,454.00
2023-04-27T01:42:13.502Z,459.00
2023-04-27T01:43:13.497Z,461.00
2023-04-27T01:44:13.522Z,459.00
2023-04-27T01:45:13.487Z,463.00
2023-04-27T01:46:13.530Z,463.00
2023-04-27T01:47:13.483Z,462.00
2023-04-27T01:48:13.468Z,461.00
2023-04-27T01:49:13.577Z,459.00
2023-04-27T01:50:13.461Z,459.00
2023-04-27T01:51:13.455Z,460.00
2023-04-27T01:52:13.464Z,459.00
2023-04-27T01:53:13.431Z,459.00
2023-04-27T01:54:13.407Z,457.00
2023-04-27T01:55:13.427Z,457.00
2023-04-27T01:56:13.405Z,457.00
2023-04-27T01:57:13.394Z,456.00
2023-04-27T01:58:13.420Z,454.00
2023-04-27T01:59:13.679Z,454.00
2023-04-27T02:00:13.381Z,453.00
2023-04-27T02:01:13.430Z,451.00
2023-04-27T02:02:13.388Z,451.00
2023-04-27T02:03:13.544Z,455.00
2023-04-27T02:04:13.568Z,455.00
2023-04-27T02:05:13.354Z,454.00
2023-04-27T02:06:13.347Z,452.00
2023-04-27T02:07:13.318Z,451.00
2023-04-27T02:08:13.336Z,452.00
2023-04-27T02:09:13.456Z,451.00
2023-04-27T02:10:13.288Z,449.00
2023-04-27T02:11:13.320Z,449.00
2023-04-27T02:12:13.340Z,448.00
2023-04-27T02:13:13.404Z,449.00
2023-04-27T02:14:13.414Z,450.00
2023-04-27T02:15:13.443Z,450.00
2023-04-27T02:16:13.567Z,449.00
2023-04-27T02:17:13.529Z,449.00
2023-04-27T02:18:13.558Z,451.00
2023-04-27T02:19:13.791Z,450.00
2023-04-27T02:20:13.649Z,451.00
2023-04-27T02:21:13.743Z,449.00
2023-04-27T02:22:13.728Z,450.00
2023-04-27T02:23:13.790Z,448.00
2023-04-27T02:24:13.851Z,448.00
2023-04-27T02:25:13.882Z,450.00
2023-04-27T02:26:13.899Z,450.00
2023-04-27T02:27:13.958Z,449.00
2023-04-27T02:28:13.986Z,449.00
2023-04-27T02:29:14.240Z,447.00
2023-04-27T02:30:14.056Z,448.00
2023-04-27T02:31:14.146Z,452.00
2023-04-27T02:32:14.130Z,455.00
2023-04-27T02:33:14.167Z,455.00
2023-04-27T02:34:14.217Z,457.00
2023-04-27T02:35:14.254Z,457.00
2023-04-27T02:36:14.308Z,460.00
2023-04-27T02:37:14.313Z,462.00
2023-04-27T02:38:14.341Z,463.00
2023-04-27T02:39:14.602Z,462.00
2023-04-27T02:40:14.446Z,460.00
2023-04-27T02:41:14.470Z,457.00
2023-04-27T02:42:15.049Z,456.00
2023-04-27T02:43:14.565Z,454.00
2023-04-27T02:44:14.678Z,455.00
2023-04-27T02:45:14.655Z,454.00
2023-04-27T02:46:14.700Z,454.00
2023-04-27T02:47:14.706Z,454.00
2023-04-27T02:48:14.788Z,454.00
2023-04-27T02:49:15.055Z,451.00
2023-04-27T02:50:14.839Z,452.00
2023-04-27T02:51:14.898Z,453.00
2023-04-27T02:52:14.936Z,452.00
2023-04-27T02:53:14.993Z,453.00
2023-04-27T02:54:15.015Z,450.00
2023-04-27T02:55:15.080Z,449.00
2023-04-27T02:56:15.123Z,445.00
2023-04-27T02:57:15.156Z,447.00
2023-04-27T02:58:15.195Z,447.00
2023-04-27T02:59:15.609Z,446.00
2023-04-27T03:00:15.282Z,448.00
2023-04-27T03:01:15.334Z,448.00
2023-04-27T03:02:15.379Z,450.00
2023-04-27T03:03:15.562Z,450.00
2023-04-27T03:04:15.647Z,448.00
2023-04-27T03:05:15.484Z,448.00
2023-04-27T03:06:15.562Z,448.00
2023-04-27T03:07:15.581Z,449.00
2023-04-27T03:08:15.618Z,449.00
2023-04-27T03:09:16.023Z,450.00
2023-04-27T03:10:15.709Z,450.00
2023-04-27T03:11:15.743Z,450.00
2023-04-27T03:12:15.801Z,450.00
2023-04-27T03:13:15.835Z,450.00
2023-04-27T03:14:15.902Z,449.00
2023-04-27T03:15:15.886Z,449.00
2023-04-27T03:16:15.964Z,449.00
2023-04-27T03:17:16.010Z,449.00
2023-04-27T03:18:16.054Z,451.00
2023-04-27T03:19:16.330Z,450.00
2023-04-27T03:20:16.136Z,448.00
2023-04-27T03:21:16.148Z,449.00
2023-04-27T03:22:16.215Z,446.00
2023-04-27T03:23:16.264Z,449.00
2023-04-27T03:24:16.280Z,449.00
2023-04-27T03:25:16.375Z,448.00
2023-04-27T03:26:16.399Z,450.00
2023-04-27T03:27:16.429Z,451.00
2023-04-27T03:28:16.543Z,449.00
2023-04-27T03:29:16.493Z,448.00
2023-04-27T03:30:16.520Z,448.00
2023-04-27T03:31:16.640Z,450.00
2023-04-27T03:32:16.654Z,450.00
2023-04-27T03:33:16.695Z,451.00
2023-04-27T03:34:16.715Z,449.00
2023-04-27T03:35:16.777Z,452.00
2023-04-27T03:36:16.996Z,452.00
2023-04-27T03:37:16.861Z,454.00
2023-04-27T03:38:16.916Z,455.00
2023-04-27T03:39:16.955Z,455.00
2023-04-27T03:40:17.001Z,455.00
2023-04-27T03:41:17.040Z,456.00
2023-04-27T03:42:17.078Z,456.00
2023-04-27T03:43:17.148Z,454.00
2023-04-27T03:44:17.170Z,453.00
2023-04-27T03:45:17.225Z,453.00
2023-04-27T03:46:17.260Z,454.00
2023-04-27T03:47:17.303Z,454.00
2023-04-27T03:48:17.345Z,452.00
2023-04-27T03:49:17.391Z,451.00
2023-04-27T03:50:17.427Z,450.00
2023-04-27T03:51:17.468Z,450.00
2023-04-27T03:52:17.537Z,448.00
2023-04-27T03:53:17.562Z,452.00
2023-04-27T03:54:17.616Z,451.00
2023-04-27T03:55:17.668Z,449.00
2023-04-27T03:56:17.705Z,450.00
2023-04-27T03:57:17.750Z,453.00
2023-04-27T03:58:17.803Z,452.00
2023-04-27T03:59:17.834Z,451.00
2023-04-27T04:00:17.918Z,451.00
2023-04-27T04:01:17.947Z,452.00
2023-04-27T04:02:18.068Z,450.00
2023-04-27T04:03:18.211Z,449.00
2023-04-27T04:04:18.360Z,448.00
2023-04-27T04:05:18.221Z,445.00
2023-04-27T04:06:18.185Z,444.00
2023-04-27T04:07:18.189Z,443.00
2023-04-27T04:08:18.232Z,443.00
2023-04-27T04:09:18.315Z,444.00
2023-04-27T04:10:18.341Z,445.00
2023-04-27T04:11:18.389Z,444.00
2023-04-27T04:12:18.423Z,444.00
2023-04-27T04:13:18.471Z,446.00
2023-04-27T04:14:18.529Z,447.00
2023-04-27T04:15:18.585Z,447.00
2023-04-27T04:16:18.644Z,445.00
2023-04-27T04:17:18.684Z,445.00
2023-04-27T04:18:18.697Z,445.00
2023-04-27T04:19:20.767Z,444.00
2023-04-27T04:20:18.764Z,444.00
2023-04-27T04:21:18.744Z,448.00
2023-04-27T04:22:18.724Z,447.00
2023-04-27T04:23:18.745Z,448.00
2023-04-27T04:24:18.729Z,448.00
2023-04-27T04:25:18.708Z,447.00
2023-04-27T04:26:18.696Z,448.00
2023-04-27T04:27:18.711Z,452.00
2023-04-27T04:28:18.680Z,451.00
2023-04-27T04:29:18.689Z,450.00
2023-04-27T04:30:18.673Z,450.00
2023-04-27T04:31:18.705Z,449.00
2023-04-27T04:32:18.676Z,447.00
2023-04-27T04:33:18.646Z,447.00
2023-04-27T04:34:18.658Z,447.00
2023-04-27T04:35:18.626Z,450.00
2023-04-27T04:36:18.642Z,453.00
2023-04-27T04:37:18.633Z,451.00
2023-04-27T04:38:18.626Z,452.00
2023-04-27T04:39:18.609Z,452.00
2023-04-27T04:40:18.577Z,451.00
2023-04-27T04:41:18.588Z,449.00
2023-04-27T04:42:18.606Z,450.00
2023-04-27T04:43:18.590Z,450.00
2023-04-27T04:44:18.583Z,449.00
2023-04-27T04:45:18.578Z,448.00
2023-04-27T04:46:18.574Z,447.00
2023-04-27T04:47:18.558Z,450.00
2023-04-27T04:48:18.528Z,451.00
2023-04-27T04:49:18.518Z,456.00
2023-04-27T04:50:18.510Z,456.00
2023-04-27T04:51:18.532Z,455.00
2023-04-27T04:52:18.521Z,456.00
2023-04-27T04:53:18.524Z,456.00
2023-04-27T04:54:18.492Z,457.00
2023-04-27T04:55:18.504Z,458.00
2023-04-27T04:56:18.480Z,455.00
2023-04-27T04:57:18.494Z,456.00
2023-04-27T04:58:18.505Z,455.00
2023-04-27T04:59:18.471Z,456.00
2023-04-27T05:00:18.540Z,456.00
2023-04-27T05:01:18.614Z,454.00
2023-04-27T05:02:18.694Z,455.00
2023-04-27T05:03:18.851Z,456.00
2023-04-27T05:04:18.989Z,455.00
2023-04-27T05:05:18.837Z,457.00
2023-04-27T05:06:18.867Z,455.00
2023-04-27T05:07:23.243Z,457.00
2023-04-27T05:08:19.949Z,454.00
2023-04-27T05:09:18.940Z,455.00
2023-04-27T05:10:18.947Z,452.00
2023-04-27T05:11:18.899Z,452.00
2023-04-27T05:12:18.897Z,454.00
2023-04-27T05:13:18.907Z,455.00
2023-04-27T05:14:18.891Z,454.00
2023-04-27T05:15:18.899Z,454.00
2023-04-27T05:16:18.965Z,455.00
2023-04-27T05:17:18.932Z,456.00
2023-04-27T05:18:19.012Z,457.00
2023-04-27T05:19:19.065Z,456.00
2023-04-27T05:20:19.142Z,456.00
2023-04-27T05:21:19.165Z,454.00
2023-04-27T05:22:19.213Z,453.00
2023-04-27T05:23:19.274Z,454.00
2023-04-27T05:24:19.290Z,454.00
2023-04-27T05:25:19.338Z,455.00
2023-04-27T05:26:19.406Z,453.00
2023-04-27T05:27:19.455Z,452.00
2023-04-27T05:28:19.514Z,456.00
2023-04-27T05:29:19.534Z,459.00
2023-04-27T05:30:19.586Z,459.00
2023-04-27T05:31:19.733Z,459.00
2023-04-27T05:32:19.724Z,458.00
2023-04-27T05:33:19.757Z,458.00
2023-04-27T05:34:19.814Z,458.00
2023-04-27T05:35:19.842Z,458.00
2023-04-27T05:36:19.881Z,459.00
2023-04-27T05:37:19.938Z,458.00
2023-04-27T05:38:20.035Z,457.00
2023-04-27T05:39:20.095Z,457.00
2023-04-27T05:40:21.115Z,457.00
2023-04-27T05:41:20.145Z,457.00
2023-04-27T05:42:20.207Z,457.00
2023-04-27T05:43:20.243Z,455.00
2023-04-27T05:44:20.318Z,456.00
2023-04-27T05:45:20.424Z,456.00
2023-04-27T05:46:20.463Z,457.00
2023-04-27T05:47:20.509Z,456.00
2023-04-27T05:48:20.534Z,457.00
2023-04-27T05:49:20.542Z,458.00
2023-04-27T05:50:20.601Z,459.00
2023-04-27T05:51:20.637Z,459.00
2023-04-27T05:52:20.709Z,462.00
2023-04-27T05:53:21.127Z,467.00
2023-04-27T05:54:20.787Z,470.00
2023-04-27T05:55:20.801Z,475.00
2023-04-27T05:56:20.975Z,480.00
2023-04-27T05:57:20.878Z,486.00
2023-04-27T05:58:20.934Z,491.00
2023-04-27T05:59:20.983Z,496.00
2023-04-27T06:00:21.063Z,502.00
2023-04-27T06:01:21.067Z,504.00
2023-04-27T06:02:21.237Z,505.00
2023-04-27T06:03:21.327Z,508.00
2023-04-27T06:04:21.259Z,515.00
2023-04-27T06:05:21.253Z,521.00
2023-04-27T06:06:21.226Z,526.00
2023-04-27T06:07:21.279Z,527.00
2023-04-27T06:08:21.326Z,527.00
2023-04-27T06:09:21.333Z,527.00
2023-04-27T06:10:21.390Z,529.00
2023-04-27T06:11:21.437Z,530.00
2023-04-27T06:12:21.445Z,532.00
2023-04-27T06:13:21.511Z,531.00
2023-04-27T06:14:21.533Z,530.00
2023-04-27T06:15:21.545Z,529.00
2023-04-27T06:16:21.733Z,529.00
2023-04-27T06:17:21.628Z,530.00
2023-04-27T06:18:21.652Z,533.00
2023-04-27T06:19:21.666Z,533.00
2023-04-27T06:20:21.694Z,535.00
2023-04-27T06:21:21.767Z,535.00
2023-04-27T06:22:21.772Z,539.00
2023-04-27T06:23:21.808Z,542.00
2023-04-27T06:24:21.811Z,550.00
2023-04-27T06:25:22.805Z,553.00
2023-04-27T06:26:21.831Z,556.00
2023-04-27T06:27:21.881Z,557.00
2023-04-27T06:28:21.886Z,562.00
2023-04-27T06:29:21.915Z,565.00
2023-04-27T06:30:21.909Z,566.00
2023-04-27T06:31:22.003Z,568.00
2023-04-27T06:32:21.954Z,569.00
2023-04-27T06:33:21.984Z,571.00
2023-04-27T06:34:21.989Z,573.00
2023-04-27T06:35:22.020Z,576.00
2023-04-27T06:36:22.168Z,578.00
2023-04-27T06:37:22.034Z,579.00
2023-04-27T06:38:22.048Z,580.00
2023-04-27T06:39:22.049Z,582.00
2023-04-27T06:40:22.085Z,582.00
2023-04-27T06:41:22.171Z,583.00
2023-04-27T06:42:22.101Z,585.00
2023-04-27T06:43:22.125Z,585.00
2023-04-27T06:44:22.129Z,586.00
2023-04-27T06:45:22.137Z,585.00
2023-04-27T06:46:22.206Z,588.00
2023-04-27T06:47:22.165Z,592.00
2023-04-27T06:48:22.707Z,617.00
2023-04-27T06:49:22.171Z,627.00
2023-04-27T06:50:22.233Z,650.00
2023-04-27T06:51:22.361Z,690.00
2023-04-27T06:52:22.184Z,745.00
2023-04-27T06:53:22.175Z,773.00
2023-04-27T06:54:22.180Z,803.00
2023-04-27T06:55:22.178Z,839.00
2023-04-27T06:56:22.202Z,859.00
2023-04-27T06:57:22.164Z,861.00
2023-04-27T06:58:22.201Z,865.00
2023-04-27T06:59:22.177Z,868.00
2023-04-27T07:00:22.170Z,872.00
2023-04-27T07:01:22.208Z,876.00
2023-04-27T07:02:24.326Z,900.00
2023-04-27T07:03:22.305Z,909.00
2023-04-27T07:04:22.221Z,913.00
2023-04-27T07:05:22.183Z,912.00
2023-04-27T07:06:22.144Z,913.00
2023-04-27T07:07:22.158Z,917.00
2023-04-27T07:08:22.148Z,935.00
2023-04-27T07:09:27.407Z,934.00
2023-04-27T07:10:23.137Z,928.00
2023-04-27T07:11:22.118Z,951.00
2023-04-27T07:12:22.097Z,956.00
2023-04-27T07:13:22.121Z,964.00
2023-04-27T07:14:22.111Z,969.00
2023-04-27T07:15:22.109Z,974.00
2023-04-27T07:16:22.160Z,971.00
2023-04-27T07:17:22.091Z,961.00
2023-04-27T07:18:22.082Z,957.00
2023-04-27T07:19:22.081Z,958.00
2023-04-27T07:20:22.044Z,959.00
2023-04-27T07:21:22.026Z,960.00
2023-04-27T07:22:22.020Z,967.00
2023-04-27T07:23:22.049Z,1001.00
2023-04-27T07:24:22.026Z,1012.00
2023-04-27T07:25:22.033Z,1016.00
2023-04-27T07:26:22.016Z,1017.00
2023-04-27T07:27:22.000Z,1019.00
2023-04-27T07:28:22.041Z,1011.00
2023-04-27T07:29:27.033Z,1011.00
2023-04-27T07:30:22.994Z,1011.00
2023-04-27T07:31:22.048Z,1012.00
2023-04-27T07:32:22.163Z,1007.00
2023-04-27T07:33:22.173Z,1007.00
2023-04-27T07:34:21.984Z,1048.00
2023-04-27T07:35:21.951Z,1050.00
2023-04-27T07:36:21.933Z,1048.00
2023-04-27T07:37:22.001Z,1042.00
2023-04-27T07:38:21.958Z,1033.00
2023-04-27T07:39:21.916Z,1030.00
2023-04-27T07:40:21.955Z,1025.00
2023-04-27T07:41:21.879Z,1033.00
2023-04-27T07:42:21.908Z,1026.00
2023-04-27T07:43:22.189Z,1003.00
2023-04-27T07:44:21.889Z,1009.00
2023-04-27T07:45:21.891Z,983.00
2023-04-27T07:46:21.931Z,967.00
2023-04-27T07:47:21.929Z,974.00
2023-04-27T07:48:22.340Z,978.00
2023-04-27T07:49:21.843Z,962.00
2023-04-27T07:50:21.871Z,955.00
2023-04-27T07:51:21.852Z,957.00
2023-04-27T07:52:21.872Z,946.00
2023-04-27T07:53:21.895Z,945.00
2023-04-27T07:54:21.876Z,917.00
2023-04-27T07:55:21.886Z,903.00
2023-04-27T07:56:21.947Z,929.00
2023-04-27T07:57:21.888Z,917.00
2023-04-27T07:58:21.950Z,923.00
2023-04-27T07:59:21.916Z,897.00
2023-04-27T08:00:21.934Z,896.00
2023-04-27T08:01:21.946Z,890.00
2023-04-27T08:02:22.084Z,884.00
2023-04-27T08:03:22.186Z,885.00
2023-04-27T08:04:22.243Z,865.00
2023-04-27T08:05:22.185Z,863.00
2023-04-27T08:06:22.213Z,882.00
2023-04-27T08:07:22.489Z,881.00
2023-04-27T08:08:21.992Z,871.00
2023-04-27T08:09:21.991Z,875.00
2023-04-27T08:10:21.979Z,874.00
2023-04-27T08:11:21.962Z,851.00
2023-04-27T08:12:21.947Z,856.00
2023-04-27T08:13:23.207Z,853.00
2023-04-27T08:14:21.983Z,854.00
2023-04-27T08:15:22.013Z,856.00
2023-04-27T08:16:22.074Z,860.00
2023-04-27T08:17:21.993Z,854.00
2023-04-27T08:18:21.957Z,817.00
2023-04-27T08:19:21.989Z,830.00
2023-04-27T08:20:21.977Z,846.00
2023-04-27T08:21:21.954Z,824.00
2023-04-27T08:22:21.956Z,845.00
2023-04-27T08:23:21.970Z,867.00
2023-04-27T08:24:22.164Z,919.00
2023-04-27T08:25:21.961Z,919.00
2023-04-27T08:26:23.449Z,922.00
2023-04-27T08:27:21.958Z,920.00
2023-04-27T08:28:21.914Z,876.00
2023-04-27T08:29:27.685Z,876.00
2023-04-27T08:30:22.999Z,887.00
2023-04-27T08:31:21.941Z,892.00
2023-04-27T08:32:21.937Z,800.00
2023-04-27T08:33:21.886Z,808.00
2023-04-27T08:34:21.902Z,827.00
2023-04-27T08:35:21.921Z,816.00
2023-04-27T08:36:22.003Z,779.00
2023-04-27T08:37:21.886Z,822.00
2023-04-27T08:38:25.027Z,821.00
2023-04-27T08:39:21.858Z,805.00
2023-04-27T08:40:21.879Z,798.00
2023-04-27T08:41:22.511Z,790.00
2023-04-27T08:42:21.852Z,785.00
2023-04-27T08:43:21.831Z,794.00
2023-04-27T08:44:21.849Z,761.00
2023-04-27T08:45:21.807Z,781.00
2023-04-27T08:46:21.842Z,787.00
2023-04-27T08:47:31.445Z,797.00
2023-04-27T08:48:22.899Z,802.00
2023-04-27T08:49:22.267Z,787.00
2023-04-27T08:50:21.796Z,794.00
2023-04-27T08:51:21.775Z,798.00
2023-04-27T08:52:21.780Z,853.00
2023-04-27T08:53:21.768Z,904.00
2023-04-27T08:54:21.757Z,927.00
2023-04-27T08:55:21.768Z,945.00
2023-04-27T08:56:21.761Z,975.00
2023-04-27T08:57:21.755Z,986.00
2023-04-27T08:58:21.714Z,998.00
2023-04-27T08:59:21.735Z,1001.00
2023-04-27T09:00:21.860Z,1003.00
2023-04-27T09:01:21.730Z,1011.00
2023-04-27T09:02:21.786Z,1005.00
2023-04-27T09:03:21.863Z,1009.00
2023-04-27T09:04:21.997Z,1041.00
2023-04-27T09:05:21.709Z,1051.00
2023-04-27T09:06:21.700Z,1062.00
2023-04-27T09:07:21.703Z,1060.00
2023-04-27T09:08:21.670Z,1060.00
2023-04-27T09:09:21.668Z,1067.00
2023-04-27T09:10:21.727Z,1067.00
2023-04-27T09:11:21.656Z,1047.00
2023-04-27T09:12:21.719Z,1038.00
2023-04-27T09:13:21.680Z,1037.00
2023-04-27T09:14:21.713Z,1040.00
2023-04-27T09:15:21.720Z,1041.00
2023-04-27T09:16:21.726Z,1039.00
2023-04-27T09:17:21.740Z,1038.00
2023-04-27T09:18:21.717Z,1039.00
2023-04-27T09:19:21.724Z,1041.00
2023-04-27T09:20:21.736Z,1034.00
2023-04-27T09:21:21.740Z,1025.00
2023-04-27T09:22:21.734Z,962.00
2023-04-27T09:23:21.731Z,970.00
2023-04-27T09:24:21.737Z,972.00
2023-04-27T09:25:21.749Z,975.00
2023-04-27T09:26:21.824Z,961.00
2023-04-27T09:27:21.822Z,870.00
2023-04-27T09:28:21.828Z,841.00
2023-04-27T09:29:21.846Z,847.00
2023-04-27T09:30:21.858Z,898.00
2023-04-27T09:31:21.918Z,939.00
2023-04-27T09:32:22.010Z,949.00
2023-04-27T09:33:21.962Z,967.00
2023-04-27T09:34:22.007Z,971.00
2023-04-27T09:35:22.002Z,1069.00
2023-04-27T09:36:22.013Z,1116.00
2023-04-27T09:37:22.046Z,1146.00
2023-04-27T09:38:22.127Z,1153.00
2023-04-27T09:39:22.719Z,1183.00
2023-04-27T09:40:22.273Z,1191.00
2023-04-27T09:41:22.308Z,1244.00
2023-04-27T09:42:22.341Z,1218.00
2023-04-27T09:43:22.365Z,1213.00
2023-04-27T09:44:22.680Z,1202.00
2023-04-27T09:45:22.460Z,1218.00
2023-04-27T09:46:22.565Z,1056.00
2023-04-27T09:47:22.547Z,1111.00
2023-04-27T09:48:22.628Z,1118.00
2023-04-27T09:49:22.679Z,1134.00
2023-04-27T09:50:22.704Z,1151.00
2023-04-27T09:51:22.755Z,1189.00
2023-04-27T09:52:22.779Z,1196.00
2023-04-27T09:53:22.824Z,1194.00
2023-04-27T09:54:22.917Z,1208.00
2023-04-27T09:55:22.888Z,1213.00
2023-04-27T09:56:23.005Z,1219.00
2023-04-27T09:57:23.002Z,1220.00
2023-04-27T09:58:23.017Z,1221.00
2023-04-27T09:59:23.035Z,1214.00
2023-04-27T10:00:23.040Z,1209.00
2023-04-27T10:01:23.114Z,1197.00
2023-04-27T10:02:24.813Z,1196.00
2023-04-27T10:03:23.208Z,1195.00
2023-04-27T10:04:23.328Z,1191.00
2023-04-27T10:05:23.279Z,1182.00
2023-04-27T10:06:23.232Z,1177.00
2023-04-27T10:07:23.244Z,1174.00
2023-04-27T10:08:23.298Z,1175.00
2023-04-27T10:09:23.283Z,1177.00
2023-04-27T10:10:23.308Z,1177.00
2023-04-27T10:11:23.351Z,1173.00
2023-04-27T10:12:23.391Z,1169.00
2023-04-27T10:13:23.382Z,1168.00
2023-04-27T10:14:23.405Z,1169.00
2023-04-27T10:15:23.413Z,1172.00
2023-04-27T10:16:23.476Z,1172.00
2023-04-27T10:17:23.454Z,1183.00
2023-04-27T10:18:23.449Z,1195.00
2023-04-27T10:19:23.442Z,1198.00
2023-04-27T10:20:23.460Z,1201.00
2023-04-27T10:21:23.467Z,1206.00
2023-04-27T10:23:23.505Z,1212.00
2023-04-27T10:24:23.490Z,1218.00
2023-04-27T10:25:23.504Z,1222.00
2023-04-27T10:26:23.511Z,1228.00
2023-04-27T10:27:23.520Z,1228.00
2023-04-27T10:28:23.529Z,1225.00
2023-04-27T10:29:23.539Z,1225.00
2023-04-27T10:30:23.509Z,1224.00
2023-04-27T10:31:23.561Z,1219.00
2023-04-27T10:32:23.574Z,1205.00
2023-04-27T10:33:23.528Z,1200.00
2023-04-27T10:34:23.576Z,1192.00
2023-04-27T10:35:23.569Z,1190.00
2023-04-27T10:36:23.571Z,1137.00
2023-04-27T10:37:23.578Z,1105.00
2023-04-27T10:38:23.636Z,1093.00
2023-04-27T10:39:30.071Z,1097.00
2023-04-27T10:40:24.628Z,1152.00
2023-04-27T10:41:23.582Z,1147.00
2023-04-27T10:42:23.599Z,1162.00
2023-04-27T10:43:23.573Z,1178.00
2023-04-27T10:44:23.744Z,1193.00
2023-04-27T10:45:23.571Z,1237.00
2023-04-27T10:46:23.597Z,1244.00
2023-04-27T10:47:23.588Z,1244.00
2023-04-27T10:48:23.563Z,1250.00
2023-04-27T10:49:23.562Z,1255.00
2023-04-27T10:50:23.558Z,1254.00
2023-04-27T10:51:23.550Z,1257.00
2023-04-27T10:52:23.523Z,1257.00
2023-04-27T10:53:23.523Z,1258.00
2023-04-27T10:54:23.517Z,1256.00
2023-04-27T10:55:23.514Z,1257.00
2023-04-27T10:56:23.550Z,1258.00
2023-04-27T10:57:23.516Z,1261.00
2023-04-27T10:58:23.474Z,1263.00
2023-04-27T10:59:23.478Z,1268.00
2023-04-27T11:00:23.865Z,1275.00
2023-04-27T11:01:23.520Z,1280.00
2023-04-27T11:02:23.551Z,1278.00
2023-04-27T11:03:23.557Z,1269.00
2023-04-27T11:04:23.474Z,1267.00
2023-04-27T11:05:23.468Z,1273.00
2023-04-27T11:06:23.426Z,1276.00
2023-04-27T11:07:23.433Z,1279.00
2023-04-27T11:08:23.420Z,1276.00
2023-04-27T11:09:23.453Z,1274.00
2023-04-27T11:10:23.443Z,1264.00
2023-04-27T11:11:23.500Z,1258.00
2023-04-27T11:12:23.596Z,1259.00
2023-04-27T11:13:23.622Z,1270.00
2023-04-27T11:14:23.649Z,1283.00
2023-04-27T11:15:23.707Z,1281.00
2023-04-27T11:16:23.820Z,1280.00
2023-04-27T11:17:23.845Z,1277.00
2023-04-27T11:18:23.947Z,1276.00
2023-04-27T11:19:23.956Z,1277.00
2023-04-27T11:20:24.069Z,1277.00
2023-04-27T11:21:24.059Z,1283.00
2023-04-27T11:22:24.119Z,1283.00
2023-04-27T11:23:24.230Z,1284.00
2023-04-27T11:24:24.300Z,1281.00
2023-04-27T11:25:24.319Z,1286.00
2023-04-27T11:26:24.394Z,1289.00
2023-04-27T11:27:24.482Z,1290.00
2023-04-27T11:28:24.643Z,1288.00
2023-04-27T11:29:24.743Z,1293.00
2023-04-27T11:30:24.657Z,1291.00
2023-04-27T11:31:24.732Z,1293.00
2023-04-27T11:32:24.824Z,1297.00
2023-04-27T11:33:24.831Z,1313.00
2023-04-27T11:34:24.859Z,1300.00
2023-04-27T11:35:24.943Z,1282.00
2023-04-27T11:36:25.022Z,1274.00
2023-04-27T11:37:25.082Z,1223.00
2023-04-27T11:38:25.187Z,1204.00
2023-04-27T11:39:25.259Z,1189.00
2023-04-27T11:40:25.235Z,1180.00
2023-04-27T11:41:25.233Z,1165.00
2023-04-27T11:42:25.233Z,1155.00
2023-04-27T11:43:25.234Z,1155.00
2023-04-27T11:44:25.244Z,1149.00
2023-04-27T11:45:25.251Z,1138.00
2023-04-27T11:46:25.307Z,1130.00
2023-04-27T11:47:25.344Z,1111.00
2023-04-27T11:48:25.274Z,1105.00
2023-04-27T11:49:25.271Z,1044.00
2023-04-27T11:50:25.271Z,1024.00
2023-04-27T11:51:25.274Z,1024.00
2023-04-27T11:52:25.317Z,1023.00
2023-04-27T11:53:25.325Z,1020.00
2023-04-27T11:54:25.314Z,1016.00
2023-04-27T11:55:25.337Z,1006.00
2023-04-27T11:56:25.370Z,1041.00
2023-04-27T11:57:25.372Z,979.00
2023-04-27T11:58:25.402Z,965.00
2023-04-27T11:59:25.447Z,951.00
2023-04-27T12:00:25.472Z,834.00
2023-04-27T12:01:37.037Z,829.00
2023-04-27T12:02:26.513Z,750.00
2023-04-27T12:03:25.551Z,735.00
2023-04-27T12:04:25.712Z,731.00
2023-04-27T12:05:25.560Z,729.00
2023-04-27T12:06:32.638Z,725.00
2023-04-27T12:07:26.421Z,712.00
2023-04-27T12:08:25.424Z,708.00
2023-04-27T12:09:25.402Z,697.00
2023-04-27T12:10:25.386Z,695.00
2023-04-27T12:11:25.426Z,691.00
2023-04-27T12:12:25.369Z,695.00
2023-04-27T12:13:25.388Z,695.00
2023-04-27T12:14:25.368Z,693.00
2023-04-27T12:15:25.356Z,688.00
2023-04-27T12:16:25.354Z,683.00
2023-04-27T12:17:25.435Z,677.00
2023-04-27T12:18:25.447Z,671.00
2023-04-27T12:19:25.511Z,666.00
2023-04-27T12:20:25.537Z,661.00
2023-04-27T12:21:25.602Z,657.00
2023-04-27T12:22:25.643Z,650.00
2023-04-27T12:23:25.657Z,643.00